createdAt,value
2022-08-12T00:01:02.078Z,100639.88
2022-08-12T00:03:47.939Z,100645.84
2022-08-12T00:06:35.542Z,100656.16
2022-08-12T00:09:26.141Z,100647.44
2022-08-12T00:12:12.949Z,100655.78
2022-08-12T00:15:00.848Z,100650.03
2022-08-12T00:17:47.062Z,100648.34
2022-08-12T00:20:32.429Z,100645.34
2022-08-12T00:23:20.891Z,100648.34
2022-08-12T00:26:23.239Z,100647.25
2022-08-12T00:29:11.593Z,100637.16
2022-08-12T00:31:57.889Z,100639.53
2022-08-12T00:34:45.670Z,100637.38
2022-08-12T00:37:33.535Z,100644.38
2022-08-12T00:40:20.648Z,100639.00
2022-08-12T00:42:48.648Z,100640.88
2022-08-12T00:45:16.789Z,100641.06
2022-08-12T00:47:45.206Z,100638.56
2022-08-12T00:50:18.271Z,100640.63
2022-08-12T00:52:47.638Z,100640.72
2022-08-12T00:55:18.589Z,100637.38
2022-08-12T00:57:49.248Z,100641.91
2022-08-12T01:00:21.463Z,100645.16
2022-08-12T01:02:52.538Z,100641.88
2022-08-12T01:05:40.020Z,100643.25
2022-08-12T01:08:25.790Z,100649.81
2022-08-12T01:11:14.839Z,100643.16
2022-08-12T01:13:48.710Z,100647.91
2022-08-12T01:16:22.644Z,100642.91
2022-08-12T01:18:52.573Z,100648.81
2022-08-12T01:21:44.882Z,100646.75
2022-08-12T01:24:31.279Z,100641.44
2022-08-12T01:27:03.437Z,100643.97
2022-08-12T01:29:43.789Z,100642.78
2022-08-12T01:32:14.223Z,100648.38
2022-08-12T01:34:47.484Z,100638.91
2022-08-12T01:37:20.210Z,100654.63
2022-08-12T01:40:34.807Z,100652.94
2022-08-12T01:42:46.551Z,100651.66
2022-08-12T01:45:17.402Z,100660.06
2022-08-12T01:47:58.192Z,100666.81
2022-08-12T01:50:37.315Z,100652.22
2022-08-12T01:53:09.186Z,100650.47
2022-08-12T01:55:40.323Z,100647.47
2022-08-12T01:58:19.673Z,100657.16
2022-08-12T02:00:58.524Z,100648.72
2022-08-12T02:04:16.546Z,100644.22
2022-08-12T02:07:14.514Z,100642.13
2022-08-12T02:10:50.237Z,100645.63
2022-08-12T02:13:09.897Z,100644.53
2022-08-12T02:15:49.682Z,100649.97
2022-08-12T02:18:26.943Z,100642.63
2022-08-12T02:21:02.345Z,100647.72
2022-08-12T02:23:32.219Z,100652.69
2022-08-12T02:26:05.278Z,100646.22
2022-08-12T02:28:34.467Z,100640.88
2022-08-12T02:31:06.735Z,100639.19
2022-08-12T02:33:37.551Z,100642.09
2022-08-12T02:36:07.030Z,100630.84
2022-08-12T02:38:35.132Z,100637.75
2022-08-12T02:41:06.840Z,100638.66
2022-08-12T02:43:38.791Z,100630.81
2022-08-12T02:46:14.939Z,100636.31
2022-08-12T02:48:51.014Z,100642.63
2022-08-12T02:51:20.598Z,100638.25
2022-08-12T02:54:03.010Z,100643.66
2022-08-12T02:56:37.268Z,100644.25
2022-08-12T02:59:06.631Z,100647.13
2022-08-12T03:01:47.821Z,100642.00
2022-08-12T03:04:26.425Z,100652.13
2022-08-12T03:07:02.158Z,100650.00
2022-08-12T03:09:43.081Z,100648.19
2022-08-12T03:12:25.502Z,100658.22
2022-08-12T03:14:55.851Z,100660.09
2022-08-12T03:17:30.264Z,100659.75
2022-08-12T03:20:10.703Z,100661.56
2022-08-12T03:22:41.543Z,100664.66
2022-08-12T03:25:16.093Z,100664.25
2022-08-12T03:27:49.598Z,100666.75
2022-08-12T03:30:19.267Z,100672.53
2022-08-12T03:32:51.649Z,100662.25
2022-08-12T03:35:40.183Z,100668.44
2022-08-12T03:38:15.983Z,100670.50
2022-08-12T03:41:15.325Z,100672.03
2022-08-12T03:44:10.269Z,100672.16
2022-08-12T03:47:00.667Z,100669.03
2022-08-12T03:49:47.656Z,100676.94
2022-08-12T03:52:33.360Z,100668.69
2022-08-12T03:55:19.313Z,100672.03
2022-08-12T03:58:07.981Z,100671.38
2022-08-12T04:00:37.849Z,100679.16
2022-08-12T04:03:25.963Z,100677.50
2022-08-12T04:05:56.728Z,100682.13
2022-08-12T04:08:26.940Z,100679.38
2022-08-12T04:11:13.312Z,100681.97
2022-08-12T04:13:41.677Z,100685.47
2022-08-12T04:16:13.571Z,100690.16
2022-08-12T04:18:42.947Z,100688.59
2022-08-12T04:21:12.316Z,100693.59
2022-08-12T04:23:47.701Z,100695.22
2022-08-12T04:26:17.121Z,100701.84
2022-08-12T04:28:45.873Z,100700.19
2022-08-12T04:31:14.649Z,100697.13
2022-08-12T04:33:43.738Z,100694.69
2022-08-12T04:36:13.095Z,100700.22
2022-08-12T04:38:42.264Z,100702.59
2022-08-12T04:41:10.797Z,100698.38
2022-08-12T04:44:00.164Z,100698.25
2022-08-12T04:46:33.604Z,100703.50
2022-08-12T04:49:04.012Z,100699.00
2022-08-12T04:51:34.155Z,100699.41
2022-08-12T04:54:02.636Z,100694.75
2022-08-12T04:56:35.516Z,100695.53
2022-08-12T04:59:05.317Z,100695.03
2022-08-12T05:01:33.318Z,100693.06
2022-08-12T05:04:02.635Z,100699.78
2022-08-12T05:06:30.690Z,100699.16
2022-08-12T05:09:00.782Z,100704.69
2022-08-12T05:11:29.234Z,100697.28
2022-08-12T05:13:59.795Z,100707.69
2022-08-12T05:16:32.426Z,100706.56
2022-08-12T05:19:02.425Z,100710.47
2022-08-12T05:21:30.710Z,100719.13
2022-08-12T05:24:00.320Z,100720.47
2022-08-12T05:26:29.325Z,100731.31
2022-08-12T05:28:57.377Z,100730.47
2022-08-12T05:31:45.502Z,100733.50
2022-08-12T05:34:15.480Z,100734.63
2022-08-12T05:36:44.731Z,100720.66
2022-08-12T05:39:14.383Z,100730.69
2022-08-12T05:41:42.297Z,100726.50
2022-08-12T05:44:13.339Z,100738.34
2022-08-12T05:46:41.369Z,100735.13
2022-08-12T05:49:10.118Z,100733.50
2022-08-12T05:51:42.367Z,100735.81
2022-08-12T05:54:11.866Z,100740.53
2022-08-12T05:56:41.960Z,100743.91
2022-08-12T05:59:11.909Z,100746.78
2022-08-12T06:02:10.885Z,100748.38
2022-08-12T06:04:28.737Z,100754.78
2022-08-12T06:06:56.900Z,100750.41
2022-08-12T06:09:26.311Z,100765.03
2022-08-12T06:12:04.449Z,100764.00
2022-08-12T06:14:36.923Z,100761.13
2022-08-12T06:17:09.465Z,100752.38
2022-08-12T06:20:28.200Z,100757.31
2022-08-12T06:22:26.707Z,100760.34
2022-08-12T06:24:54.852Z,100759.44
2022-08-12T06:27:24.282Z,100756.06
2022-08-12T06:30:07.241Z,100756.69
2022-08-12T06:33:04.342Z,100762.72
2022-08-12T06:35:48.481Z,100752.59
2022-08-12T06:38:17.507Z,100756.09
2022-08-12T06:41:03.943Z,100757.81
2022-08-12T06:44:04.521Z,100753.00
2022-08-12T06:46:23.197Z,100755.63
2022-08-12T06:48:56.948Z,100757.81
2022-08-12T06:51:25.321Z,100759.16
2022-08-12T06:53:53.533Z,100760.06
2022-08-12T06:56:27.349Z,100756.16
2022-08-12T06:59:11.163Z,100765.16
2022-08-12T07:01:39.220Z,100761.09
2022-08-12T07:04:35.366Z,100761.22
2022-08-12T07:06:55.812Z,100756.97
2022-08-12T07:09:58.069Z,100759.69
2022-08-12T07:12:16.278Z,100761.84
2022-08-12T07:14:48.871Z,100752.47
2022-08-12T07:17:17.191Z,100759.59
2022-08-12T07:19:46.742Z,100763.03
2022-08-12T07:22:15.351Z,100754.22
2022-08-12T07:24:43.444Z,100759.78
2022-08-12T07:27:11.437Z,100771.22
2022-08-12T07:29:58.161Z,100763.25
2022-08-12T07:32:29.579Z,100766.66
2022-08-12T07:34:57.719Z,100761.19
2022-08-12T07:37:25.727Z,100767.28
2022-08-12T07:39:59.532Z,100771.53
2022-08-12T07:42:29.750Z,100767.16
2022-08-12T07:44:59.975Z,100769.91
2022-08-12T07:47:30.787Z,100770.31
2022-08-12T07:50:03.273Z,100772.81
2022-08-12T07:52:32.151Z,100765.72
2022-08-12T07:55:01.036Z,100766.94
2022-08-12T07:57:29.078Z,100772.69
2022-08-12T07:59:57.078Z,100766.09
2022-08-12T08:02:26.780Z,100761.06
2022-08-12T08:05:00.574Z,100760.72
2022-08-12T08:07:31.164Z,100761.19
2022-08-12T08:10:00.820Z,100753.69
2022-08-12T08:12:47.556Z,100753.25
2022-08-12T08:15:16.493Z,100749.75
2022-08-12T08:17:57.639Z,100749.84
2022-08-12T08:20:29.349Z,100748.66
2022-08-12T08:22:58.850Z,100736.66
2022-08-12T08:25:36.221Z,100752.78
2022-08-12T08:28:08.050Z,100739.66
2022-08-12T08:30:39.236Z,100749.03
2022-08-12T08:33:24.546Z,100743.00
2022-08-12T08:36:02.240Z,100741.53
2022-08-12T08:38:33.145Z,100739.88
2022-08-12T08:42:16.661Z,100746.69
2022-08-12T08:44:11.727Z,100721.53
2022-08-12T08:46:40.326Z,100734.28
2022-08-12T08:49:08.796Z,100729.00
2022-08-12T08:51:38.935Z,100734.16
2022-08-12T08:54:08.460Z,100735.41
2022-08-12T08:56:43.786Z,100738.50
2022-08-12T08:59:12.568Z,100726.13
2022-08-12T09:01:44.333Z,100736.66
2022-08-12T09:05:07.719Z,100723.78
2022-08-12T09:07:18.160Z,100716.41
2022-08-12T09:10:02.226Z,100713.06
2022-08-12T09:12:54.784Z,100721.91
2022-08-12T09:18:12.896Z,100718.97
2022-08-12T09:20:43.591Z,100718.56
2022-08-12T09:23:58.356Z,100718.50
2022-08-12T09:26:04.473Z,100720.53
2022-08-12T09:28:37.146Z,100716.47
2022-08-12T09:32:06.991Z,100716.19
2022-08-12T09:34:27.948Z,100714.56
2022-08-12T09:36:57.969Z,100722.53
2022-08-12T09:40:01.396Z,100701.66
2022-08-12T09:42:43.630Z,100709.34
2022-08-12T09:45:23.352Z,100699.16
2022-08-12T09:47:57.080Z,100695.91
2022-08-12T09:50:28.518Z,100699.28
2022-08-12T09:53:15.396Z,100697.59
2022-08-12T09:56:07.213Z,100685.50
2022-08-12T09:58:57.077Z,100683.50
2022-08-12T10:01:25.412Z,100679.22
2022-08-12T10:04:06.062Z,100676.84
2022-08-12T10:06:36.649Z,100684.09
2022-08-12T10:09:06.707Z,100662.56
2022-08-12T10:12:11.376Z,100674.19
2022-08-12T10:14:49.968Z,100668.31
2022-08-12T10:17:22.513Z,100673.69
2022-08-12T10:19:52.899Z,100662.34
2022-08-12T10:22:39.957Z,100652.13
2022-08-12T10:26:18.370Z,100654.03
2022-08-12T10:28:34.303Z,100669.84
2022-08-12T10:31:05.080Z,100655.41
2022-08-12T10:33:50.657Z,100648.34
2022-08-12T10:36:40.483Z,100646.16
2022-08-12T10:40:01.910Z,100641.09
2022-08-12T10:42:29.474Z,100644.72
2022-08-12T10:45:05.383Z,100640.31
2022-08-12T10:48:19.164Z,100637.47
2022-08-12T10:50:36.030Z,100636.78
2022-08-12T10:53:15.642Z,100632.50
2022-08-12T10:55:55.548Z,100633.19
2022-08-12T10:58:27.921Z,100629.63
2022-08-12T11:01:50.182Z,100627.41
2022-08-12T11:04:26.564Z,100625.31
2022-08-12T11:07:06.492Z,100623.88
2022-08-12T11:09:54.413Z,100628.94
2022-08-12T11:12:58.005Z,100619.44
2022-08-12T11:15:19.425Z,100607.97
2022-08-12T11:17:53.456Z,100615.00
2022-08-12T11:20:24.353Z,100605.09
2022-08-12T11:22:59.058Z,100607.38
2022-08-12T11:25:55.709Z,100606.66
2022-08-12T11:28:17.024Z,100602.28
2022-08-12T11:31:01.876Z,100602.19
2022-08-12T11:34:06.099Z,100600.13
2022-08-12T11:36:21.806Z,100590.56
2022-08-12T11:38:51.322Z,100596.19
2022-08-12T11:41:27.857Z,100578.59
2022-08-12T11:43:59.270Z,100590.56
2022-08-12T11:46:27.427Z,100587.63
2022-08-12T11:48:59.877Z,100580.25
2022-08-12T11:51:27.901Z,100569.88
2022-08-12T11:54:07.993Z,100573.59
2022-08-12T11:56:44.824Z,100561.38
2022-08-12T12:02:20.046Z,100564.78
2022-08-12T12:04:52.151Z,100567.72
2022-08-12T12:07:21.060Z,100576.16
2022-08-12T12:09:52.221Z,100565.72
2022-08-12T12:12:23.428Z,100544.44
2022-08-12T12:14:54.877Z,100554.06
2022-08-12T12:17:24.512Z,100553.44
2022-08-12T12:19:55.130Z,100546.06
2022-08-12T12:22:27.134Z,100553.31
2022-08-12T12:24:59.286Z,100537.13
2022-08-12T12:28:04.545Z,100558.81
2022-08-12T12:30:34.978Z,100544.44
2022-08-12T12:33:03.469Z,100530.06
2022-08-12T12:36:06.099Z,100528.59
2022-08-12T12:38:25.396Z,100534.50
2022-08-12T12:40:54.756Z,100533.34
2022-08-12T12:43:28.947Z,100525.44
2022-08-12T12:46:10.638Z,100521.53
2022-08-12T12:48:44.128Z,100523.94
2022-08-12T12:51:48.988Z,100519.72
2022-08-12T12:54:10.017Z,100515.41
2022-08-12T12:56:41.802Z,100514.75
2022-08-12T12:59:54.625Z,100512.56
2022-08-12T13:02:07.580Z,100504.63
2022-08-12T13:04:37.319Z,100511.91
2022-08-12T13:07:07.844Z,100505.25
2022-08-12T13:09:36.838Z,100493.84
2022-08-12T13:12:09.024Z,100504.69
2022-08-12T13:14:40.120Z,100495.19
2022-08-12T13:17:11.302Z,100504.38
2022-08-12T13:19:46.991Z,100488.84
2022-08-12T13:22:21.442Z,100504.00
2022-08-12T13:24:55.647Z,100499.69
2022-08-12T13:27:35.180Z,100501.81
2022-08-12T13:30:11.138Z,100502.50
2022-08-12T13:32:42.382Z,100499.66
2022-08-12T13:35:19.673Z,100505.44
2022-08-12T13:38:02.597Z,100496.00
2022-08-12T13:40:33.477Z,100488.69
2022-08-12T13:43:02.622Z,100476.63
2022-08-12T13:45:35.317Z,100476.63
2022-08-12T13:48:06.415Z,100480.44
2022-08-12T13:50:37.482Z,100482.59
2022-08-12T13:53:24.004Z,100483.25
2022-08-12T13:55:59.542Z,100485.03
2022-08-12T13:58:34.756Z,100486.28
2022-08-12T14:01:05.878Z,100473.66
2022-08-12T14:03:51.265Z,100480.25
2022-08-12T14:06:21.158Z,100481.97
2022-08-12T14:08:50.752Z,100475.59
2022-08-12T14:11:19.474Z,100472.25
2022-08-12T14:14:04.259Z,100470.66
2022-08-12T14:16:48.585Z,100472.84
2022-08-12T14:19:25.016Z,100477.13
2022-08-12T14:21:59.864Z,100473.31
2022-08-12T14:24:40.076Z,100467.78
2022-08-12T14:27:11.326Z,100467.22
2022-08-12T14:30:04.272Z,100463.72
2022-08-12T14:32:34.925Z,100456.13
2022-08-12T14:35:06.462Z,100458.25
2022-08-12T14:37:54.871Z,100467.81
2022-08-12T14:40:29.195Z,100454.09
2022-08-12T14:42:58.535Z,100451.03
2022-08-12T14:45:44.430Z,100446.97
2022-08-12T14:48:18.355Z,100453.81
2022-08-12T14:51:03.307Z,100442.31
2022-08-12T14:59:56.902Z,100449.13
2022-08-12T15:02:23.137Z,100442.91
2022-08-12T15:04:58.909Z,100444.97
2022-08-12T15:07:34.370Z,100447.31
2022-08-12T15:10:25.152Z,100437.09
2022-08-12T15:13:07.206Z,100439.16
2022-08-12T15:15:44.136Z,100447.88
2022-08-12T15:18:21.163Z,100439.34
2022-08-12T15:20:51.042Z,100437.97
2022-08-12T15:23:21.549Z,100444.38
2022-08-12T15:26:02.683Z,100441.38
2022-08-12T15:28:34.710Z,100436.88
2022-08-12T15:31:09.623Z,100449.59
2022-08-12T15:33:54.206Z,100438.41
2022-08-12T15:36:54.247Z,100439.19
2022-08-12T15:39:16.821Z,100435.44
2022-08-12T15:41:50.155Z,100427.84
2022-08-12T15:44:41.796Z,100421.47
2022-08-12T15:47:10.061Z,100431.41
2022-08-12T15:49:43.183Z,100431.34
2022-08-12T15:52:27.346Z,100435.41
2022-08-12T15:54:58.741Z,100434.13
2022-08-12T15:57:27.716Z,100431.19
2022-08-12T16:00:07.655Z,100429.13
2022-08-12T16:02:47.325Z,100431.06
2022-08-12T16:06:10.357Z,100425.31
2022-08-12T16:08:17.199Z,100418.94
2022-08-12T16:10:48.463Z,100428.38
2022-08-12T16:13:25.245Z,100429.06
2022-08-12T16:16:03.441Z,100423.50
2022-08-12T16:18:33.331Z,100419.13
2022-08-12T16:21:02.204Z,100414.16
2022-08-12T16:23:51.891Z,100415.31
2022-08-12T16:26:20.475Z,100421.50
2022-08-12T16:29:14.903Z,100416.16
2022-08-12T16:31:45.593Z,100417.94
2022-08-12T16:34:38.409Z,100410.19
2022-08-12T16:37:07.689Z,100417.25
2022-08-12T16:40:00.218Z,100414.09
2022-08-12T16:42:27.760Z,100411.78
2022-08-12T16:44:59.315Z,100424.09
2022-08-12T16:47:29.084Z,100417.97
2022-08-12T16:50:17.299Z,100410.25
2022-08-12T16:52:48.591Z,100418.69
2022-08-12T16:55:16.641Z,100407.84
2022-08-12T16:57:48.567Z,100399.91
2022-08-12T17:00:18.737Z,100394.03
2022-08-12T17:02:50.657Z,100395.56
2022-08-12T17:05:31.198Z,100389.94
2022-08-12T17:08:01.112Z,100388.69
2022-08-12T17:10:35.455Z,100387.38
2022-08-12T17:13:10.268Z,100393.94
2022-08-12T17:15:57.634Z,100386.88
2022-08-12T17:18:43.026Z,100381.97
2022-08-12T17:21:15.236Z,100376.56
2022-08-12T17:23:53.091Z,100375.22
2022-08-12T17:26:22.708Z,100375.16
2022-08-12T17:28:59.061Z,100383.22
2022-08-12T17:31:59.278Z,100391.56
2022-08-12T17:34:33.418Z,100390.53
2022-08-12T17:37:05.451Z,100388.50
2022-08-12T17:40:12.667Z,100386.44
2022-08-12T17:42:34.611Z,100398.16
2022-08-12T17:45:18.055Z,100389.44
2022-08-12T17:48:01.279Z,100393.63
2022-08-12T17:50:33.253Z,100404.03
2022-08-12T17:53:03.290Z,100401.59
2022-08-12T17:55:44.436Z,100408.69
2022-08-12T17:58:17.262Z,100411.13
2022-08-12T18:00:47.338Z,100415.34
2022-08-12T18:03:58.060Z,100416.56
2022-08-12T18:06:14.011Z,100417.13
2022-08-12T18:08:54.834Z,100419.00
2022-08-12T18:12:04.749Z,100427.00
2022-08-12T18:14:31.140Z,100420.94
2022-08-12T18:17:01.037Z,100418.28
2022-08-12T18:20:03.804Z,100416.63
2022-08-12T18:22:21.943Z,100431.16
2022-08-12T18:25:02.381Z,100427.91
2022-08-12T18:27:44.358Z,100425.81
2022-08-12T18:30:20.450Z,100427.25
2022-08-12T18:33:03.462Z,100429.84
2022-08-12T18:35:46.293Z,100435.88
2022-08-12T18:38:18.475Z,100437.47
2022-08-12T18:41:07.212Z,100430.44
2022-08-12T18:43:59.338Z,100431.75
2022-08-12T18:46:34.792Z,100435.97
2022-08-12T18:49:17.828Z,100432.50
2022-08-12T18:51:55.059Z,100438.19
2022-08-12T18:54:34.644Z,100438.28
2022-08-12T18:57:16.310Z,100438.34
2022-08-12T19:00:01.780Z,100445.34
2022-08-12T19:02:40.460Z,100441.75
2022-08-12T19:05:11.739Z,100445.91
2022-08-12T19:07:58.042Z,100448.97
2022-08-12T19:10:31.594Z,100442.41
2022-08-12T19:13:23.048Z,100445.81
2022-08-12T19:15:54.986Z,100449.31
2022-08-12T19:18:30.187Z,100446.25
2022-08-12T19:21:06.348Z,100448.94
2022-08-12T19:23:40.267Z,100449.44
2022-08-12T19:26:10.729Z,100449.72
2022-08-12T19:28:41.127Z,100450.06
2022-08-12T19:31:58.481Z,100454.72
2022-08-12T19:37:27.446Z,100459.59
2022-08-12T19:40:20.427Z,100451.66
2022-08-12T19:43:00.668Z,100449.88
2022-08-12T19:45:41.936Z,100446.22
2022-08-12T19:48:16.356Z,100444.13
2022-08-12T19:50:50.475Z,100461.16
2022-08-12T19:53:22.957Z,100458.53
2022-08-12T19:55:53.539Z,100468.22
2022-08-12T19:58:24.687Z,100465.94
2022-08-12T20:00:54.626Z,100468.13
2022-08-12T20:03:38.326Z,100473.91
2022-08-12T20:06:13.465Z,100467.00
2022-08-12T20:08:49.395Z,100477.78
2022-08-12T20:12:12.969Z,100478.81
2022-08-12T20:14:17.820Z,100476.28
2022-08-12T20:16:51.971Z,100488.47
2022-08-12T20:19:24.900Z,100468.19
2022-08-12T20:22:23.504Z,100473.47
2022-08-12T20:24:55.251Z,100477.72
2022-08-12T20:27:29.330Z,100476.16
2022-08-12T20:30:15.793Z,100472.03
2022-08-12T20:32:53.844Z,100472.50
2022-08-12T20:35:24.365Z,100480.59
2022-08-12T20:38:06.202Z,100480.13
2022-08-12T20:40:38.645Z,100478.06
2022-08-12T20:43:06.977Z,100476.97
2022-08-12T20:45:50.644Z,100478.41
2022-08-12T20:48:21.543Z,100477.97
2022-08-12T20:50:53.422Z,100486.97
2022-08-12T20:53:28.946Z,100485.53
2022-08-12T20:56:30.936Z,100490.03
2022-08-12T20:59:01.016Z,100496.59
2022-08-12T21:01:47.085Z,100490.56
2022-08-12T21:04:35.738Z,100492.22
2022-08-12T21:07:08.457Z,100484.50
2022-08-12T21:09:41.512Z,100479.47
2022-08-12T21:12:31.408Z,100486.72
2022-08-12T21:15:23.789Z,100490.16
2022-08-12T21:18:08.859Z,100492.16
2022-08-12T21:20:38.312Z,100486.13
2022-08-12T21:23:07.454Z,100482.63
2022-08-12T21:25:44.310Z,100482.84
2022-08-12T21:28:13.062Z,100488.69
2022-08-12T21:30:54.757Z,100495.50
2022-08-12T21:34:06.255Z,100493.50
2022-08-12T21:36:22.857Z,100496.13
2022-08-12T21:39:17.618Z,100494.69
2022-08-12T21:41:51.100Z,100501.03
2022-08-12T21:44:23.941Z,100493.25
2022-08-12T21:47:12.047Z,100497.94
2022-08-12T21:50:02.226Z,100490.53
2022-08-12T21:52:34.670Z,100501.56
2022-08-12T21:55:20.189Z,100499.91
2022-08-12T21:57:53.477Z,100501.16
2022-08-12T22:00:23.763Z,100502.19
2022-08-12T22:03:09.309Z,100502.06
2022-08-12T22:05:56.418Z,100503.91
2022-08-12T22:08:26.041Z,100507.38
2022-08-12T22:10:56.270Z,100501.47
2022-08-12T22:14:02.165Z,100506.78
2022-08-12T22:16:14.986Z,100508.56
2022-08-12T22:18:48.072Z,100504.78
2022-08-12T22:21:22.096Z,100505.59
2022-08-12T22:24:05.426Z,100514.59
2022-08-12T22:26:37.527Z,100516.00
2022-08-12T22:29:27.527Z,100518.41
2022-08-12T22:31:56.373Z,100511.38
2022-08-12T22:34:33.159Z,100509.72
2022-08-12T22:37:05.518Z,100515.47
2022-08-12T22:39:43.981Z,100517.28
2022-08-12T22:42:30.733Z,100520.63
2022-08-12T22:45:16.981Z,100515.34
2022-08-12T22:47:54.301Z,100518.03
2022-08-12T22:50:28.512Z,100513.47
2022-08-12T22:53:15.057Z,100515.94
2022-08-12T22:55:59.335Z,100512.09
2022-08-12T22:58:36.538Z,100509.47
2022-08-12T23:01:05.929Z,100508.56
2022-08-12T23:03:48.088Z,100506.66
2022-08-12T23:06:20.153Z,100503.06
2022-08-12T23:08:50.691Z,100504.31
2022-08-12T23:11:23.914Z,100509.47
2022-08-12T23:13:56.849Z,100503.91
2022-08-12T23:16:31.890Z,100502.22
2022-08-12T23:19:10.310Z,100504.69
2022-08-12T23:22:04.976Z,100507.75
2022-08-12T23:24:55.748Z,100505.88
2022-08-12T23:27:51.671Z,100503.66
2022-08-12T23:30:32.428Z,100503.75
2022-08-12T23:33:13.018Z,100508.19
2022-08-12T23:35:45.608Z,100507.56
2022-08-12T23:38:30.745Z,100503.09
2022-08-12T23:41:03.576Z,100497.59
2022-08-12T23:43:39.325Z,100503.84
2022-08-12T23:46:11.203Z,100501.06
2022-08-12T23:48:40.903Z,100510.94
2022-08-12T23:51:22.749Z,100498.28
2022-08-12T23:53:59.794Z,100494.25
2022-08-12T23:56:32.669Z,100489.91
2022-08-12T23:59:00.712Z,100499.06
